Time;durP1;ratioP1;P1;durP2;ratioP2;P2;SDS_P1;SDS_P2;PMS_P1;PMS_P2;Temp;Humidity;BMP_temperature;BMP_pressure;BME280_temperature;BME280_humidity;BME280_pressure;Samples;Min_cycle;Max_cycle;Signal;HPM_P1;HPM_P2
2024/01/03 00:03:05;;;;;;;2.95;0.70;;;10.50;99.90;;;;;;10371757;28;20607;-68
2024/01/03 00:08:11;;;;;;;4.15;0.85;;;10.40;99.90;;;;;;10375625;28;20040;-68
2024/01/03 00:13:30;;;;;;;1.45;0.50;;;10.40;99.90;;;;;;10367060;28;20486;-68
2024/01/03 00:18:37;;;;;;;2.05;0.45;;;10.40;99.90;;;;;;10360500;28;20116;-68
2024/01/03 00:23:43;;;;;;;4.13;0.55;;;10.40;99.90;;;;;;10371549;28;20577;-68
2024/01/03 00:28:44;;;;;;;4.43;0.77;;;10.40;99.90;;;;;;10371677;28;20053;-68
2024/01/03 00:33:44;;;;;;;2.83;0.77;;;10.40;99.90;;;;;;10364159;28;20024;-68
2024/01/03 00:38:45;;;;;;;2.20;0.65;;;10.40;99.90;;;;;;10357731;28;20113;-68
2024/01/03 00:43:46;;;;;;;3.08;0.77;;;10.40;99.90;;;;;;10372900;28;20109;-68
2024/01/03 00:48:46;;;;;;;3.10;0.52;;;10.30;99.90;;;;;;10364967;28;20110;-68
2024/01/03 00:53:47;;;;;;;2.08;0.60;;;10.30;99.90;;;;;;10369325;28;20035;-68
2024/01/03 00:58:47;;;;;;;3.13;1.00;;;10.30;99.90;;;;;;10361745;28;20117;-68
2024/01/03 01:03:48;;;;;;;6.75;1.08;;;10.30;99.90;;;;;;10366411;28;20425;-68
2024/01/03 01:08:49;;;;;;;3.45;0.55;;;10.30;99.90;;;;;;10370460;28;20383;-68
2024/01/03 01:13:50;;;;;;;3.40;0.70;;;10.30;99.90;;;;;;10366605;28;20100;-69
2024/01/03 01:18:50;;;;;;;2.40;0.80;;;10.30;99.90;;;;;;10362603;28;20026;-68
2024/01/03 01:23:51;;;;;;;6.90;1.20;;;10.30;99.90;;;;;;10365881;28;20017;-68
2024/01/03 01:28:51;;;;;;;2.42;0.68;;;10.30;99.90;;;;;;10369888;28;20568;-67
2024/01/03 01:33:52;;;;;;;6.10;0.73;;;10.30;99.90;;;;;;10362803;28;20022;-68
2024/01/03 01:38:53;;;;;;;4.57;0.70;;;11.30;99.90;;;;;;10374666;28;20045;-69
2024/01/03 01:43:53;;;;;;;4.38;1.02;;;10.20;99.90;;;;;;10373524;28;20032;-68
2024/01/03 01:48:54;;;;;;;4.20;1.23;;;10.20;99.90;;;;;;10358598;28;20029;-68
2024/01/03 01:53:55;;;;;;;4.10;0.60;;;10.20;99.90;;;;;;10369579;28;20051;-67
2024/01/03 01:58:56;;;;;;;2.65;0.60;;;10.20;99.90;;;;;;10355436;28;20090;-68
2024/01/03 02:03:57;;;;;;;4.57;0.60;;;10.20;99.90;;;;;;10363591;28;20044;-68
2024/01/03 02:08:58;;;;;;;3.95;0.70;;;11.10;99.90;;;;;;10372862;28;20172;-68
2024/01/03 02:13:58;;;;;;;1.50;0.55;;;10.30;99.90;;;;;;10366164;28;20053;-68
2024/01/03 02:18:59;;;;;;;1.27;0.40;;;10.20;99.90;;;;;;10371375;28;20018;-68
2024/01/03 02:24:00;;;;;;;1.40;0.47;;;10.20;99.90;;;;;;10361561;28;20034;-68
2024/01/03 02:29:00;;;;;;;2.72;0.52;;;10.40;99.90;;;;;;10359804;28;20038;-68
2024/01/03 02:34:01;;;;;;;1.45;0.60;;;10.20;99.90;;;;;;10358570;28;20024;-68
2024/01/03 02:39:04;;;;;;;3.17;0.50;;;10.20;99.90;;;;;;10356498;28;20036;-68
2024/01/03 02:44:05;;;;;;;2.50;0.70;;;10.20;99.90;;;;;;10365817;28;20095;-68
2024/01/03 02:49:05;;;;;;;3.60;1.05;;;10.70;99.90;;;;;;10368627;28;20529;-68
2024/01/03 02:54:06;;;;;;;4.35;0.65;;;10.20;99.90;;;;;;10374221;28;20032;-68
2024/01/03 02:59:07;;;;;;;4.78;0.70;;;10.20;99.90;;;;;;10354677;28;20334;-69
2024/01/03 03:04:07;;;;;;;4.18;0.63;;;10.20;99.90;;;;;;10372803;28;20120;-69
2024/01/03 03:09:08;;;;;;;3.65;1.00;;;10.20;99.90;;;;;;10372670;28;20032;-69
2024/01/03 03:14:10;;;;;;;4.88;0.57;;;10.20;99.90;;;;;;10369622;28;20516;-67
2024/01/03 03:19:10;;;;;;;5.65;0.75;;;10.20;99.90;;;;;;10352449;28;20062;-68
2024/01/03 03:24:11;;;;;;;3.28;0.55;;;10.20;99.90;;;;;;10367445;28;20316;-68
2024/01/03 03:29:11;;;;;;;9.70;0.88;;;10.20;99.90;;;;;;10370610;28;20528;-68
2024/01/03 03:34:12;;;;;;;1.25;0.52;;;10.20;99.90;;;;;;10372443;28;20049;-68
2024/01/03 03:39:12;;;;;;;5.15;1.35;;;10.20;99.90;;;;;;10364220;28;20026;-68
2024/01/03 03:44:13;;;;;;;5.22;1.33;;;10.20;99.90;;;;;;10371458;28;20029;-68
2024/01/03 03:49:14;;;;;;;5.00;0.95;;;10.20;99.90;;;;;;10368190;28;20267;-68
2024/01/03 03:54:14;;;;;;;5.78;1.40;;;10.20;99.90;;;;;;10368525;28;20509;-67
2024/01/03 03:59:15;;;;;;;7.13;1.70;;;10.20;99.90;;;;;;10366694;28;20332;-68
2024/01/03 04:04:19;;;;;;;4.00;0.70;;;10.20;99.90;;;;;;10366152;28;20026;-66
2024/01/03 04:09:20;;;;;;;4.28;1.23;;;10.20;99.90;;;;;;10353882;28;20030;-67
2024/01/03 04:14:21;;;;;;;3.97;1.00;;;10.20;99.90;;;;;;10375385;28;20026;-69
2024/01/03 04:19:22;;;;;;;9.07;1.48;;;10.20;99.90;;;;;;10369527;28;20243;-67
2024/01/03 04:24:23;;;;;;;8.40;2.00;;;10.20;99.90;;;;;;10370389;28;20478;-68
2024/01/03 04:29:23;;;;;;;5.22;1.00;;;10.20;99.90;;;;;;10367538;28;20045;-68
2024/01/03 04:34:24;;;;;;;3.83;1.13;;;10.20;99.90;;;;;;10378172;28;20030;-68
2024/01/03 04:39:24;;;;;;;7.35;1.23;;;10.20;99.90;;;;;;10352945;28;20026;-68
2024/01/03 04:44:25;;;;;;;4.85;1.40;;;10.20;99.90;;;;;;10369073;28;20064;-68
2024/01/03 04:49:27;;;;;;;9.98;1.17;;;10.20;99.90;;;;;;10364381;28;20026;-68
2024/01/03 04:54:29;;;;;;;6.43;1.40;;;10.20;99.90;;;;;;10349937;28;20097;-67
2024/01/03 04:59:29;;;;;;;5.32;1.15;;;10.30;99.90;;;;;;10364071;28;20045;-68
2024/01/03 05:04:30;;;;;;;9.73;1.48;;;10.30;99.90;;;;;;10368370;28;20043;-68
2024/01/03 05:09:34;;;;;;;7.85;1.13;;;10.30;99.90;;;;;;10366353;28;20034;-68
2024/01/03 05:14:34;;;;;;;10.57;1.42;;;10.30;99.90;;;;;;10370738;28;20080;-68
2024/01/03 05:19:35;;;;;;;6.25;1.58;;;10.30;99.90;;;;;;10363929;28;20497;-69
2024/01/03 05:24:36;;;;;;;7.47;1.52;;;10.30;99.90;;;;;;10367858;28;20025;-68
2024/01/03 05:29:36;;;;;;;4.13;1.17;;;10.30;99.90;;;;;;10370113;28;20037;-67
2024/01/03 05:34:37;;;;;;;7.55;1.30;;;10.30;99.90;;;;;;10366628;28;20543;-67
2024/01/03 05:39:37;;;;;;;5.72;1.17;;;10.30;99.90;;;;;;10366766;28;20042;-68
2024/01/03 05:44:38;;;;;;;4.03;1.08;;;10.30;99.90;;;;;;10362514;28;20301;-68
2024/01/03 05:49:39;;;;;;;6.80;1.45;;;10.30;99.90;;;;;;10362100;28;20037;-67
2024/01/03 05:54:39;;;;;;;9.57;1.20;;;10.30;99.90;;;;;;10370606;28;20512;-69
2024/01/03 05:59:40;;;;;;;11.55;1.33;;;10.30;99.90;;;;;;10370141;28;20380;-66
2024/01/03 06:04:41;;;;;;;9.57;2.05;;;10.30;99.90;;;;;;10369851;28;20353;-68
2024/01/03 06:09:41;;;;;;;2.90;0.85;;;10.30;99.90;;;;;;10348225;28;20030;-68
2024/01/03 06:14:42;;;;;;;11.32;1.92;;;10.30;99.90;;;;;;10372778;28;20026;-68
2024/01/03 06:19:44;;;;;;;5.88;1.40;;;10.30;99.90;;;;;;10375738;28;20026;-69
2024/01/03 06:24:45;;;;;;;6.45;1.55;;;10.30;99.90;;;;;;10377963;28;20036;-68
2024/01/03 06:29:45;;;;;;;7.35;1.35;;;10.30;99.90;;;;;;10365018;28;20030;-68
2024/01/03 06:34:48;;;;;;;7.28;1.63;;;10.30;99.90;;;;;;10379357;28;20230;-67
2024/01/03 06:39:49;;;;;;;6.38;1.27;;;10.30;99.90;;;;;;10378385;28;20029;-67
2024/01/03 06:44:49;;;;;;;7.57;1.63;;;10.30;99.90;;;;;;10376372;28;20022;-68
2024/01/03 06:49:51;;;;;;;5.47;1.40;;;10.30;99.90;;;;;;10380976;28;20022;-68
2024/01/03 06:54:51;;;;;;;5.63;1.10;;;10.30;99.90;;;;;;10383437;28;20389;-68
2024/01/03 06:59:52;;;;;;;9.40;1.08;;;10.30;99.90;;;;;;10372907;28;20034;-68
2024/01/03 07:04:52;;;;;;;6.85;1.55;;;10.30;99.90;;;;;;10351153;28;20034;-68
2024/01/03 07:09:53;;;;;;;7.22;1.60;;;10.30;99.90;;;;;;10372813;28;20397;-68
2024/01/03 07:14:54;;;;;;;7.18;1.33;;;10.30;99.90;;;;;;10371774;28;20378;-68
2024/01/03 07:19:54;;;;;;;4.38;1.17;;;10.30;99.90;;;;;;10378548;28;20119;-68
2024/01/03 07:24:55;;;;;;;6.47;1.10;;;10.30;99.90;;;;;;10369170;28;20050;-68
2024/01/03 07:29:56;;;;;;;4.07;0.82;;;10.30;99.90;;;;;;10358458;28;20032;-67
2024/01/03 07:34:57;;;;;;;5.38;1.02;;;10.30;99.90;;;;;;10360543;28;20018;-66
2024/01/03 07:39:57;;;;;;;4.43;1.80;;;10.30;99.90;;;;;;10372785;28;20601;-68
2024/01/03 07:44:58;;;;;;;10.13;1.48;;;10.30;99.90;;;;;;10372265;28;20529;-67
2024/01/03 07:49:58;;;;;;;5.85;1.02;;;10.30;99.90;;;;;;10373052;28;20523;-67
2024/01/03 07:55:00;;;;;;;7.13;1.33;;;10.30;99.90;;;;;;10378965;28;20037;-68
2024/01/03 08:00:00;;;;;;;5.75;1.20;;;10.30;99.90;;;;;;10365998;28;20029;-67
2024/01/03 08:05:03;;;;;;;4.55;1.17;;;10.30;99.90;;;;;;10371027;28;20048;-67
2024/01/03 08:10:06;;;;;;;10.35;1.45;;;10.30;99.90;;;;;;10365698;28;20029;-67
2024/01/03 08:15:07;;;;;;;5.55;1.02;;;10.30;99.90;;;;;;10357353;28;20489;-66
2024/01/03 08:20:09;;;;;;;6.85;1.42;;;10.30;99.90;;;;;;10354975;28;20405;-65
2024/01/03 08:25:10;;;;;;;5.85;1.25;;;10.30;99.90;;;;;;10364588;28;20033;-66
2024/01/03 08:30:11;;;;;;;4.75;0.93;;;10.30;99.90;;;;;;10335060;28;20041;-69
2024/01/03 08:35:12;;;;;;;3.65;0.77;;;10.30;99.90;;;;;;10366595;28;20131;-68
2024/01/03 08:40:12;;;;;;;6.32;1.33;;;10.30;99.90;;;;;;10363014;28;20173;-70
2024/01/03 08:45:13;;;;;;;6.28;1.27;;;10.30;99.90;;;;;;10366000;28;20033;-67
2024/01/03 08:50:13;;;;;;;5.75;1.10;;;10.40;99.90;;;;;;10360795;28;20113;-68
2024/01/03 08:55:14;;;;;;;5.30;1.27;;;10.30;99.90;;;;;;10365194;28;20025;-68
2024/01/03 09:00:16;;;;;;;6.25;1.58;;;10.40;99.90;;;;;;10363159;28;20520;-68
2024/01/03 09:05:18;;;;;;;8.98;1.45;;;10.40;99.90;;;;;;10368629;28;20055;-69
2024/01/03 09:10:20;;;;;;;4.22;1.67;;;10.40;99.90;;;;;;10370686;28;20029;-69
2024/01/03 09:15:21;;;;;;;5.13;1.45;;;10.40;99.90;;;;;;10343883;28;20211;-68
2024/01/03 09:20:23;;;;;;;7.53;1.70;;;10.40;99.90;;;;;;10364282;28;20544;-70
2024/01/03 09:25:23;;;;;;;7.40;1.55;;;10.40;99.90;;;;;;10358164;28;20029;-68
2024/01/03 09:30:24;;;;;;;8.10;1.27;;;10.40;99.90;;;;;;10354663;28;20533;-68
2024/01/03 09:35:25;;;;;;;6.90;1.25;;;10.40;99.90;;;;;;10361372;28;20453;-67
2024/01/03 09:40:26;;;;;;;4.85;1.20;;;10.40;99.90;;;;;;10356491;28;20100;-68
2024/01/03 09:45:28;;;;;;;5.93;1.27;;;10.40;99.90;;;;;;10366094;28;20113;-69
2024/01/03 09:50:28;;;;;;;3.25;0.88;;;10.50;99.90;;;;;;10364758;28;20049;-68
2024/01/03 09:55:29;;;;;;;8.02;1.30;;;10.60;99.90;;;;;;10353437;28;20041;-69
2024/01/03 10:00:30;;;;;;;4.20;1.60;;;10.60;99.90;;;;;;10364425;28;20303;-69
2024/01/03 10:05:30;;;;;;;5.53;1.10;;;10.60;99.90;;;;;;10356512;28;20056;-68
2024/01/03 10:10:32;;;;;;;7.38;1.20;;;10.60;99.90;;;;;;10364189;28;20486;-68
2024/01/03 10:15:36;;;;;;;4.40;1.20;;;10.60;99.90;;;;;;10360493;28;20397;-68
2024/01/03 10:20:36;;;;;;;6.38;1.40;;;10.60;99.90;;;;;;10345942;28;20125;-68
2024/01/03 10:25:38;;;;;;;5.03;1.40;;;10.60;99.90;;;;;;10351817;28;20028;-68
2024/01/03 10:30:39;;;;;;;7.03;1.52;;;10.60;99.90;;;;;;10362875;28;20036;-68
2024/01/03 10:35:41;;;;;;;6.97;1.88;;;10.60;99.90;;;;;;10357096;28;20675;-68
2024/01/03 10:40:41;;;;;;;7.95;1.40;;;10.60;99.90;;;;;;10366228;28;20505;-68
2024/01/03 10:45:42;;;;;;;10.60;1.80;;;10.60;99.90;;;;;;10359575;28;20037;-72
2024/01/03 10:50:43;;;;;;;10.95;1.67;;;10.80;99.90;;;;;;10356032;28;20169;-68
2024/01/03 10:55:47;;;;;;;9.90;1.63;;;10.70;99.90;;;;;;10353883;28;20088;-68
2024/01/03 11:01:12;;;;;;;8.02;1.27;;;10.80;99.90;;;;;;10364004;28;20045;-69
2024/01/03 11:06:26;;;;;;;8.30;1.58;;;10.70;99.90;;;;;;10363576;28;20438;-68
2024/01/03 11:11:40;;;;;;;7.32;1.30;;;10.70;99.90;;;;;;10369263;28;20297;-69
2024/01/03 11:16:40;;;;;;;9.77;1.95;;;10.70;99.90;;;;;;10377781;28;20016;-69
2024/01/03 11:21:45;;;;;;;7.93;1.08;;;10.70;99.90;;;;;;10364668;28;20025;-68
2024/01/03 11:26:55;;;;;;;6.60;1.48;;;10.70;99.90;;;;;;10367909;28;20046;-68
2024/01/03 11:31:58;;;;;;;7.25;1.38;;;10.70;99.90;;;;;;10370903;28;20029;-68
2024/01/03 11:36:59;;;;;;;5.30;1.33;;;10.70;99.90;;;;;;10369292;28;20328;-69
2024/01/03 11:42:00;;;;;;;5.38;1.30;;;10.70;99.90;;;;;;10360714;28;20034;-68
2024/01/03 11:47:03;;;;;;;8.15;1.48;;;10.60;99.90;;;;;;10343292;28;20036;-69
2024/01/03 11:52:03;;;;;;;5.38;2.00;;;10.60;99.90;;;;;;10341305;28;20029;-68
2024/01/03 11:57:08;;;;;;;7.25;1.38;;;10.60;99.90;;;;;;10372290;28;20026;-67
2024/01/03 12:02:12;;;;;;;4.85;1.85;;;10.60;99.90;;;;;;10358396;28;20042;-67
2024/01/03 12:07:13;;;;;;;5.03;1.13;;;10.60;99.90;;;;;;10362958;28;20034;-68
2024/01/03 12:12:14;;;;;;;4.47;0.88;;;10.60;99.90;;;;;;10370234;28;20541;-69
2024/01/03 12:17:27;;;;;;;7.68;1.40;;;10.60;99.90;;;;;;10362083;28;20392;-67
2024/01/03 12:22:27;;;;;;;7.95;1.15;;;10.60;99.90;;;;;;10351850;28;20538;-68
2024/01/03 12:27:29;;;;;;;3.70;0.70;;;10.60;99.90;;;;;;10369616;28;20060;-69
2024/01/03 12:32:31;;;;;;;2.85;1.10;;;10.50;99.90;;;;;;10356819;28;20577;-68
2024/01/03 12:37:33;;;;;;;3.25;1.00;;;10.50;99.90;;;;;;10368717;28;20674;-68
2024/01/03 12:42:34;;;;;;;6.57;1.05;;;10.50;99.90;;;;;;10363553;28;20128;-72
2024/01/03 12:47:37;;;;;;;7.22;1.45;;;10.60;99.90;;;;;;10365329;28;20057;-67
2024/01/03 12:52:38;;;;;;;4.45;0.80;;;10.70;99.90;;;;;;10363874;28;20080;-68
2024/01/03 12:57:40;;;;;;;8.25;1.00;;;10.70;99.90;;;;;;10355784;28;20081;-67
2024/01/03 13:02:40;;;;;;;5.13;1.48;;;10.60;99.90;;;;;;10352041;28;20032;-68
2024/01/03 13:07:42;;;;;;;4.45;0.95;;;10.60;99.90;;;;;;10358571;28;20041;-68
2024/01/03 13:12:42;;;;;;;1.90;0.70;;;10.60;99.90;;;;;;10353729;28;20022;-67
2024/01/03 13:17:44;;;;;;;8.25;1.00;;;10.60;99.90;;;;;;10357177;28;20025;-67
2024/01/03 13:22:45;;;;;;;5.22;1.65;;;10.60;99.90;;;;;;10347637;28;20033;-67
2024/01/03 13:27:47;;;;;;;5.10;1.50;;;10.60;99.90;;;;;;10349790;28;20033;-66
2024/01/03 13:32:47;;;;;;;3.30;1.00;;;10.60;99.90;;;;;;10357680;28;20052;-66
2024/01/03 13:37:51;;;;;;;4.95;1.00;;;10.60;99.90;;;;;;10355484;28;20289;-66
2024/01/03 13:42:53;;;;;;;5.50;0.82;;;10.60;99.90;;;;;;10353585;28;20034;-66
2024/01/03 13:47:53;;;;;;;2.50;0.82;;;10.60;99.90;;;;;;10340110;28;20040;-67
2024/01/03 13:52:55;;;;;;;2.00;0.90;;;10.60;99.90;;;;;;10355475;28;20040;-67
2024/01/03 13:57:57;;;;;;;3.40;0.82;;;10.60;99.90;;;;;;10359243;28;20543;-67
2024/01/03 14:03:00;;;;;;;5.20;0.90;;;10.60;99.90;;;;;;10360825;28;20061;-67
2024/01/03 14:08:03;;;;;;;4.32;1.08;;;10.60;99.90;;;;;;10357060;28;20117;-68
2024/01/03 14:13:04;;;;;;;2.78;1.00;;;10.60;99.90;;;;;;10355258;28;20529;-68
2024/01/03 14:18:08;;;;;;;3.03;1.10;;;10.60;99.90;;;;;;10357056;28;20247;-68
2024/01/03 14:23:12;;;;;;;5.47;0.90;;;10.60;99.90;;;;;;10358181;28;20036;-68
2024/01/03 14:28:15;;;;;;;4.38;1.23;;;10.60;99.90;;;;;;10354966;28;20030;-68
2024/01/03 14:33:16;;;;;;;4.57;1.65;;;10.60;99.90;;;;;;10357225;28;20259;-67
2024/01/03 14:38:17;;;;;;;7.07;1.13;;;10.60;99.90;;;;;;10362822;28;20018;-67
2024/01/03 14:43:31;;;;;;;5.22;1.10;;;10.60;99.90;;;;;;10363670;28;20457;-68
2024/01/03 14:48:32;;;;;;;1.98;0.90;;;10.60;99.90;;;;;;10362523;28;20099;-75
2024/01/03 14:53:40;;;;;;;8.05;1.40;;;10.70;99.90;;;;;;10365254;28;20198;-71
2024/01/03 14:58:42;;;;;;;5.75;1.50;;;10.90;99.90;;;;;;10364999;28;20342;-72
2024/01/03 15:03:43;;;;;;;6.32;1.10;;;11.00;99.90;;;;;;10364690;28;20021;-70
2024/01/03 15:08:44;;;;;;;3.50;0.98;;;10.80;99.90;;;;;;10368514;28;20030;-69
2024/01/03 15:13:45;;;;;;;10.18;1.73;;;10.70;99.90;;;;;;10361270;28;20032;-69
2024/01/03 15:18:48;;;;;;;7.15;1.55;;;10.80;99.90;;;;;;10363397;28;20026;-69
2024/01/03 15:23:49;;;;;;;9.27;1.25;;;10.70;99.90;;;;;;10375254;28;20045;-69
2024/01/03 15:28:50;;;;;;;6.97;1.10;;;11.00;99.90;;;;;;10364652;28;20472;-68
2024/01/03 15:33:51;;;;;;;11.55;1.50;;;11.10;99.90;;;;;;10365747;28;20014;-68
2024/01/03 15:38:51;;;;;;;7.60;1.35;;;11.00;99.90;;;;;;10359320;28;20019;-67
2024/01/03 15:43:52;;;;;;;7.47;1.45;;;10.90;99.90;;;;;;10357635;28;20036;-68
2024/01/03 15:48:52;;;;;;;10.57;1.95;;;10.90;99.90;;;;;;10362108;28;20081;-67
2024/01/03 15:53:53;;;;;;;6.57;1.25;;;10.80;99.90;;;;;;10370154;28;20287;-68
2024/01/03 15:58:54;;;;;;;6.75;1.67;;;10.60;99.90;;;;;;10353861;28;20524;-69
2024/01/03 16:03:57;;;;;;;6.40;2.03;;;10.70;99.90;;;;;;10355574;28;20321;-67
2024/01/03 16:08:57;;;;;;;8.70;1.65;;;10.70;99.90;;;;;;10356842;28;20612;-66
2024/01/03 16:13:58;;;;;;;5.38;1.23;;;10.70;99.90;;;;;;10358481;28;20014;-68
2024/01/03 16:18:58;;;;;;;5.70;1.38;;;10.70;99.90;;;;;;10365519;28;20025;-67
2024/01/03 16:24:00;;;;;;;7.60;1.30;;;10.60;99.90;;;;;;10362834;28;20034;-68
2024/01/03 16:29:00;;;;;;;7.15;1.70;;;10.60;99.90;;;;;;10344517;28;20030;-67
2024/01/03 16:34:01;;;;;;;8.48;1.33;;;10.60;99.90;;;;;;10365279;28;20021;-66
2024/01/03 16:39:01;;;;;;;6.75;1.95;;;10.60;99.90;;;;;;10361780;28;20030;-67
2024/01/03 16:44:02;;;;;;;4.82;1.20;;;10.60;99.90;;;;;;10357613;28;20101;-70
2024/01/03 16:49:02;;;;;;;11.55;2.15;;;10.60;99.90;;;;;;10361796;28;20021;-68
2024/01/03 16:54:03;;;;;;;4.40;1.40;;;10.50;99.90;;;;;;10364302;28;20018;-68
2024/01/03 16:59:04;;;;;;;9.95;1.73;;;10.50;99.90;;;;;;10360064;28;20514;-69
2024/01/03 17:04:06;;;;;;;7.90;1.38;;;10.50;99.90;;;;;;10361936;28;20068;-69
2024/01/03 17:09:13;;;;;;;8.77;1.70;;;10.40;99.90;;;;;;10361477;28;20033;-69
2024/01/03 17:14:17;;;;;;;9.50;2.03;;;10.50;99.90;;;;;;10366277;28;20022;-69
2024/01/03 17:19:17;;;;;;;4.63;1.75;;;10.50;99.90;;;;;;10348872;28;20018;-70
2024/01/03 17:24:18;;;;;;;8.65;1.52;;;10.50;99.90;;;;;;10363364;28;20034;-69
2024/01/03 17:29:19;;;;;;;7.63;1.48;;;10.50;99.90;;;;;;10368805;28;20026;-70
2024/01/03 17:34:19;;;;;;;8.35;1.63;;;10.50;99.90;;;;;;10360115;28;20030;-69
2024/01/03 17:39:23;;;;;;;10.35;1.70;;;10.50;99.90;;;;;;10362043;28;20025;-69
2024/01/03 17:44:23;;;;;;;4.80;1.50;;;10.50;99.90;;;;;;10360024;28;20038;-69
2024/01/03 17:49:24;;;;;;;7.40;1.83;;;10.50;99.90;;;;;;10366326;28;20022;-69
2024/01/03 17:54:24;;;;;;;6.60;1.13;;;10.50;99.90;;;;;;10371039;28;20029;-71
2024/01/03 17:59:25;;;;;;;7.35;1.63;;;10.50;99.90;;;;;;10359497;28;20397;-69
2024/01/03 18:04:26;;;;;;;8.30;1.98;;;10.60;99.90;;;;;;10365352;28;20030;-69
2024/01/03 18:09:28;;;;;;;9.88;1.77;;;10.60;99.90;;;;;;10362109;28;20033;-68
2024/01/03 18:14:34;;;;;;;6.18;1.95;;;10.60;99.90;;;;;;10372221;28;20026;-69
2024/01/03 18:19:35;;;;;;;8.75;2.22;;;10.60;99.90;;;;;;10362813;28;20034;-67
2024/01/03 18:24:39;;;;;;;3.78;1.23;;;10.60;99.90;;;;;;10361867;28;20437;-68
2024/01/03 18:29:42;;;;;;;5.53;1.38;;;10.60;99.90;;;;;;10349288;28;20030;-68
2024/01/03 18:34:43;;;;;;;6.40;1.55;;;10.60;99.90;;;;;;10374244;28;20029;-68
2024/01/03 18:39:43;;;;;;;5.35;1.13;;;10.60;99.90;;;;;;10363065;28;20437;-68
2024/01/03 18:44:44;;;;;;;5.68;1.40;;;10.60;99.90;;;;;;10362086;28;20033;-68
2024/01/03 18:49:45;;;;;;;7.82;2.65;;;10.60;99.90;;;;;;10361919;28;20190;-71
2024/01/03 18:54:45;;;;;;;3.75;1.65;;;10.60;99.90;;;;;;10359203;28;20045;-68
2024/01/03 18:59:46;;;;;;;7.90;1.55;;;10.50;99.90;;;;;;10375088;28;20032;-69
2024/01/03 19:04:46;;;;;;;6.00;1.60;;;10.50;99.90;;;;;;10362554;28;20100;-69
2024/01/03 19:09:47;;;;;;;6.57;1.85;;;10.50;99.90;;;;;;10362618;28;20474;-69
2024/01/03 19:14:47;;;;;;;5.28;1.75;;;10.50;99.90;;;;;;10367914;28;20026;-69
2024/01/03 19:19:48;;;;;;;4.50;1.55;;;10.60;99.90;;;;;;10367428;28;20030;-69
2024/01/03 19:24:48;;;;;;;4.80;1.70;;;10.60;99.90;;;;;;10372055;28;20403;-70
2024/01/03 19:29:49;;;;;;;5.45;1.60;;;9.80;99.90;;;;;;10355129;28;20038;-69
2024/01/03 19:34:50;;;;;;;6.90;1.83;;;10.60;99.90;;;;;;10361361;28;20026;-68
2024/01/03 19:39:50;;;;;;;6.15;2.33;;;10.50;99.90;;;;;;10362881;28;20028;-69
2024/01/03 19:44:51;;;;;;;11.15;2.33;;;10.60;99.90;;;;;;10343026;28;20026;-69
2024/01/03 19:49:51;;;;;;;8.32;2.15;;;10.60;99.90;;;;;;10359855;28;20030;-69
2024/01/03 19:54:52;;;;;;;8.65;2.05;;;10.60;99.90;;;;;;10362419;28;20077;-69
2024/01/03 19:59:53;;;;;;;5.53;1.70;;;10.60;99.90;;;;;;10368256;28;20024;-69
2024/01/03 20:04:53;;;;;;;6.28;2.20;;;10.60;99.90;;;;;;10363234;28;20034;-69
2024/01/03 20:09:54;;;;;;;6.68;2.08;;;10.60;99.90;;;;;;10363184;28;20125;-69
2024/01/03 20:15:00;;;;;;;3.65;1.75;;;10.60;99.90;;;;;;10358590;28;20034;-69
2024/01/03 20:20:01;;;;;;;8.05;2.10;;;10.60;99.90;;;;;;10340808;28;20147;-69
2024/01/03 20:25:01;;;;;;;5.13;1.73;;;10.60;99.90;;;;;;10362898;28;20026;-68
2024/01/03 20:30:02;;;;;;;4.18;1.70;;;10.60;99.90;;;;;;10359332;28;20040;-69
2024/01/03 20:35:05;;;;;;;8.35;2.20;;;10.60;99.90;;;;;;10363479;28;20088;-69
2024/01/03 20:40:10;;;;;;;5.22;1.63;;;10.60;99.90;;;;;;10368450;28;20598;-69
2024/01/03 20:45:10;;;;;;;6.15;1.80;;;10.60;99.90;;;;;;10346171;28;20406;-69
2024/01/03 20:50:11;;;;;;;5.57;1.83;;;10.60;99.90;;;;;;10363551;28;20018;-70
2024/01/03 20:55:12;;;;;;;5.05;1.60;;;10.60;99.90;;;;;;10363627;28;20124;-69
2024/01/03 21:00:16;;;;;;;3.97;1.95;;;10.60;99.90;;;;;;10360889;28;20029;-70
2024/01/03 21:05:17;;;;;;;4.22;1.63;;;10.60;99.90;;;;;;10355191;28;20026;-69
2024/01/03 21:10:17;;;;;;;3.67;1.70;;;10.60;99.90;;;;;;10359690;28;20435;-69
2024/01/03 21:15:18;;;;;;;4.82;1.60;;;10.60;99.90;;;;;;10358318;28;20034;-68
2024/01/03 21:20:19;;;;;;;6.78;2.13;;;10.60;99.90;;;;;;10359449;28;20034;-69
2024/01/03 21:25:19;;;;;;;2.47;1.63;;;10.60;99.90;;;;;;10359603;28;20113;-69
2024/01/03 21:30:21;;;;;;;4.78;1.75;;;10.60;99.90;;;;;;10359608;28;20719;-70
2024/01/03 21:35:22;;;;;;;3.03;1.33;;;10.60;99.90;;;;;;10363423;28;20092;-69
2024/01/03 21:40:23;;;;;;;4.75;1.70;;;10.60;99.90;;;;;;10362080;28;20450;-69
2024/01/03 21:45:23;;;;;;;3.85;1.52;;;10.60;99.90;;;;;;10362568;28;20410;-70
2024/01/03 21:50:24;;;;;;;3.80;1.60;;;10.60;99.90;;;;;;10364339;28;20441;-68
2024/01/03 21:55:25;;;;;;;4.90;1.52;;;10.60;99.90;;;;;;10338960;28;20011;-68
2024/01/03 22:00:25;;;;;;;2.90;1.50;;;10.60;99.90;;;;;;10365634;28;20036;-70
2024/01/03 22:05:26;;;;;;;3.75;1.90;;;10.60;99.90;;;;;;10361914;28;20355;-70
2024/01/03 22:10:26;;;;;;;4.50;1.80;;;10.50;99.90;;;;;;10354729;28;20490;-70
2024/01/03 22:15:27;;;;;;;4.45;1.45;;;10.50;99.90;;;;;;10358720;28;20026;-69
2024/01/03 22:20:28;;;;;;;3.22;1.60;;;10.50;99.90;;;;;;10356391;28;20162;-68
2024/01/03 22:25:30;;;;;;;2.83;1.73;;;10.50;99.90;;;;;;10364879;28;20052;-70
2024/01/03 22:30:30;;;;;;;4.47;1.70;;;10.50;99.90;;;;;;10358302;28;20405;-68
2024/01/03 22:35:31;;;;;;;3.92;1.73;;;10.50;99.90;;;;;;10357877;28;20095;-69
2024/01/03 22:40:32;;;;;;;3.58;1.77;;;10.50;99.90;;;;;;10353590;28;20347;-66
2024/01/03 22:45:32;;;;;;;7.03;2.80;;;10.50;99.90;;;;;;10358313;28;20032;-67
2024/01/03 22:50:33;;;;;;;4.55;2.47;;;10.40;99.90;;;;;;10355889;28;20073;-67
2024/01/03 22:55:34;;;;;;;6.25;2.40;;;10.40;99.90;;;;;;10364001;28;20026;-67
2024/01/03 23:00:37;;;;;;;5.57;2.08;;;10.40;99.90;;;;;;10372602;28;20072;-67
2024/01/03 23:05:38;;;;;;;4.43;2.58;;;10.90;99.90;;;;;;10370100;28;20069;-67
2024/01/03 23:10:38;;;;;;;5.30;1.85;;;10.40;99.90;;;;;;10364197;28;20034;-67
2024/01/03 23:15:39;;;;;;;3.50;1.70;;;10.50;99.90;;;;;;10373275;28;20026;-67
2024/01/03 23:20:39;;;;;;;4.57;2.33;;;10.40;99.90;;;;;;10371195;28;20121;-66
2024/01/03 23:25:40;;;;;;;4.38;1.92;;;10.40;99.90;;;;;;10370638;28;20029;-67
2024/01/03 23:30:41;;;;;;;4.38;1.73;;;10.30;99.90;;;;;;10368059;28;20036;-67
2024/01/03 23:35:42;;;;;;;4.38;1.85;;;10.40;99.90;;;;;;10356459;28;20526;-67
2024/01/03 23:40:42;;;;;;;2.92;1.67;;;10.30;99.90;;;;;;10361389;28;20026;-68
2024/01/03 23:45:43;;;;;;;4.95;1.80;;;10.30;99.90;;;;;;10363170;28;20101;-67
2024/01/03 23:50:44;;;;;;;2.50;1.58;;;10.20;99.90;;;;;;10367308;28;20386;-67
2024/01/03 23:55:44;;;;;;;4.30;1.80;;;10.30;99.90;;;;;;10355385;28;20667;-67
